createdAt,value
2018-07-19T00:00:48.165Z,15.51
2018-07-19T00:01:48.145Z,15.51
2018-07-19T00:02:48.158Z,15.48
2018-07-19T00:03:48.444Z,15.40
2018-07-19T00:04:48.105Z,15.43
2018-07-19T00:05:48.085Z,15.41
2018-07-19T00:06:48.072Z,15.43
2018-07-19T00:07:48.057Z,15.33
2018-07-19T00:08:48.042Z,15.26
2018-07-19T00:09:48.055Z,15.32
2018-07-19T00:10:48.389Z,15.29
2018-07-19T00:11:48.025Z,15.30
2018-07-19T00:12:48.010Z,15.26
2018-07-19T00:13:48.004Z,15.15
2018-07-19T00:14:47.951Z,15.20
2018-07-19T00:15:47.936Z,15.17
2018-07-19T00:16:47.930Z,15.10
2018-07-19T00:17:48.206Z,15.11
2018-07-19T00:18:47.927Z,15.05
2018-07-19T00:19:47.877Z,15.08
2018-07-19T00:20:47.864Z,15.03
2018-07-19T00:21:47.847Z,15.11
2018-07-19T00:22:47.831Z,15.03
2018-07-19T00:23:47.816Z,14.92
2018-07-19T00:24:48.102Z,15.04
2018-07-19T00:25:47.816Z,14.95
2018-07-19T00:26:47.799Z,14.95
2018-07-19T00:27:47.757Z,14.99
2018-07-19T00:28:47.740Z,14.90
2018-07-19T00:29:47.725Z,14.97
2018-07-19T00:30:48.137Z,14.90
2018-07-19T00:31:47.767Z,14.87
2018-07-19T00:32:47.758Z,14.93
2018-07-19T00:33:47.772Z,14.92
2018-07-19T00:34:47.773Z,14.87
2018-07-19T00:35:47.706Z,14.86
2018-07-19T00:36:47.919Z,14.87
2018-07-19T00:37:47.603Z,14.93
2018-07-19T00:38:47.588Z,14.90
2018-07-19T00:39:47.573Z,14.86
2018-07-19T00:40:47.557Z,14.85
2018-07-19T00:41:47.542Z,14.79
2018-07-19T00:42:47.779Z,14.77
2018-07-19T00:43:47.511Z,14.77
2018-07-19T00:44:47.501Z,14.71
2018-07-19T00:45:47.480Z,14.74
2018-07-19T00:46:47.464Z,14.73
2018-07-19T00:47:47.449Z,14.69
2018-07-19T00:48:47.736Z,14.73
2018-07-19T00:49:47.418Z,14.77
2018-07-19T00:50:47.402Z,14.71
2018-07-19T00:51:47.390Z,14.63
2018-07-19T00:52:47.373Z,14.61
2018-07-19T00:53:47.358Z,14.59
2018-07-19T00:54:47.644Z,14.64
2018-07-19T00:55:47.326Z,14.71
2018-07-19T00:56:47.312Z,14.63
2018-07-19T00:57:47.295Z,14.59
2018-07-19T00:58:47.415Z,14.59
2018-07-19T01:00:47.550Z,14.58
2018-07-19T01:01:47.237Z,14.53
2018-07-19T01:02:47.218Z,14.53
2018-07-19T01:03:47.203Z,14.63
2018-07-19T01:04:47.188Z,14.59
2018-07-19T01:05:47.172Z,14.55
2018-07-19T01:06:47.457Z,14.49
2018-07-19T01:10:47.487Z,14.53
2018-07-19T01:11:47.436Z,14.44
2018-07-19T01:12:47.408Z,14.41
2018-07-19T01:13:48.084Z,14.44
2018-07-19T01:14:47.324Z,14.33
2018-07-19T01:15:47.311Z,14.36
2018-07-19T01:16:53.605Z,14.33
2018-07-19T01:17:47.274Z,14.40
2018-07-19T01:18:47.161Z,14.31
2018-07-19T01:19:47.241Z,14.28
2018-07-19T01:20:47.549Z,14.33
2018-07-19T01:21:47.182Z,14.37
2018-07-19T01:22:47.158Z,14.34
2018-07-19T01:23:47.080Z,14.37
2018-07-19T01:24:47.072Z,14.37
2018-07-19T01:25:47.047Z,14.40
2018-07-19T01:26:47.042Z,14.33
2018-07-19T01:27:47.430Z,14.36
2018-07-19T01:28:47.063Z,14.44
2018-07-19T01:29:46.992Z,14.48
2018-07-19T01:30:47.208Z,14.34
2018-07-19T01:31:47.054Z,14.45
2018-07-19T01:32:46.937Z,14.49
2018-07-19T01:33:46.961Z,14.34
2018-07-19T01:34:47.370Z,14.51
2018-07-19T01:35:46.893Z,14.36
2018-07-19T01:36:46.964Z,14.38
2018-07-19T01:37:46.951Z,14.34
2018-07-19T01:38:46.931Z,14.31
2018-07-19T01:39:46.926Z,14.34
2018-07-19T01:40:46.966Z,14.34
2018-07-19T01:41:48.831Z,14.33
2018-07-19T01:42:46.793Z,14.37
2018-07-19T01:43:46.772Z,14.28
2018-07-19T01:44:46.897Z,14.36
2018-07-19T01:45:46.860Z,14.26
2018-07-19T01:46:47.067Z,14.27
2018-07-19T01:47:46.830Z,14.27
2018-07-19T01:48:47.272Z,14.18
2018-07-19T01:49:46.880Z,14.18
2018-07-19T01:50:46.871Z,14.22
2018-07-19T01:51:46.646Z,14.18
2018-07-19T01:52:46.771Z,14.15
2018-07-19T01:53:46.583Z,14.15
2018-07-19T01:55:46.957Z,14.12
2018-07-19T01:56:46.577Z,14.09
2018-07-19T01:57:46.567Z,14.08
2018-07-19T01:58:46.617Z,14.09
2018-07-19T01:59:46.527Z,14.04
2018-07-19T02:00:46.529Z,14.12
2018-07-19T02:01:46.754Z,14.09
2018-07-19T02:02:46.394Z,14.09
2018-07-19T02:03:46.305Z,14.09
2018-07-19T02:04:46.338Z,14.12
2018-07-19T02:05:46.275Z,14.08
2018-07-19T02:06:46.358Z,14.15
2018-07-19T02:07:46.669Z,14.15
2018-07-19T02:08:46.286Z,14.08
2018-07-19T02:09:46.211Z,14.03
2018-07-19T02:10:46.252Z,14.05
2018-07-19T02:11:46.243Z,14.09
2018-07-19T02:12:46.274Z,14.08
2018-07-19T02:13:46.608Z,14.04
2018-07-19T02:14:46.158Z,14.04
2018-07-19T02:15:46.228Z,14.05
2018-07-19T02:16:46.286Z,14.03
2018-07-19T02:17:46.083Z,13.97
2018-07-19T02:18:46.134Z,14.00
2018-07-19T02:19:48.251Z,14.04
2018-07-19T02:20:47.484Z,14.03
2018-07-19T02:21:47.505Z,14.03
2018-07-19T02:22:46.067Z,13.93
2018-07-19T02:23:46.057Z,13.97
2018-07-19T02:24:46.033Z,13.91
2018-07-19T02:25:46.371Z,13.93
2018-07-19T02:26:46.016Z,13.86
2018-07-19T02:27:45.999Z,13.85
2018-07-19T02:28:47.464Z,13.80
2018-07-19T02:30:47.713Z,13.78
2018-07-19T02:31:47.094Z,13.72
2018-07-19T02:32:47.388Z,13.68
2018-07-19T02:33:47.440Z,13.72
2018-07-19T02:34:47.227Z,13.63
2018-07-19T02:35:45.891Z,13.65
2018-07-19T02:36:45.849Z,13.55
2018-07-19T02:37:46.198Z,13.61
2018-07-19T02:38:45.849Z,13.54
2018-07-19T02:39:45.803Z,13.49
2018-07-19T02:40:45.783Z,13.57
2018-07-19T02:42:45.749Z,13.46
2018-07-19T02:43:45.789Z,13.47
2018-07-19T02:44:46.120Z,13.47
2018-07-19T02:45:45.758Z,13.46
2018-07-19T02:46:45.724Z,13.43
2018-07-19T02:47:45.736Z,13.47
2018-07-19T02:48:45.701Z,13.53
2018-07-19T02:49:45.702Z,13.46
2018-07-19T02:50:45.670Z,13.49
2018-07-19T02:51:45.998Z,13.45
2018-07-19T02:52:45.638Z,13.53
2018-07-19T02:53:45.632Z,13.58
2018-07-19T02:54:45.619Z,13.60
2018-07-19T02:55:45.539Z,13.60
2018-07-19T02:56:45.606Z,13.45
2018-07-19T02:57:45.593Z,13.51
2018-07-19T02:58:45.907Z,13.43
2018-07-19T02:59:45.502Z,13.58
2018-07-19T03:00:45.521Z,13.60
2018-07-19T03:01:45.555Z,13.47
2018-07-19T03:02:45.497Z,13.55
2018-07-19T03:03:45.412Z,13.60
2018-07-19T03:04:45.579Z,13.54
2018-07-19T03:05:45.823Z,13.49
2018-07-19T03:06:45.388Z,13.58
2018-07-19T03:07:45.499Z,13.51
2018-07-19T03:08:45.367Z,13.46
2018-07-19T03:09:45.361Z,13.47
2018-07-19T03:10:45.331Z,13.49
2018-07-19T03:11:45.312Z,13.55
2018-07-19T03:12:45.640Z,13.42
2018-07-19T03:14:45.295Z,13.55
2018-07-19T03:15:45.211Z,13.61
2018-07-19T03:16:45.318Z,13.43
2018-07-19T03:17:45.268Z,13.40
2018-07-19T03:18:45.238Z,13.54
2018-07-19T03:19:45.486Z,13.49
2018-07-19T03:20:45.121Z,13.57
2018-07-19T03:21:45.105Z,13.54
2018-07-19T03:22:45.096Z,13.45
2018-07-19T03:23:45.068Z,13.46
2018-07-19T03:24:45.008Z,13.46
2018-07-19T03:25:44.993Z,13.40
2018-07-19T03:26:45.494Z,13.42
2018-07-19T03:27:45.343Z,13.46
2018-07-19T03:28:45.150Z,13.47
2018-07-19T03:29:45.146Z,13.39
2018-07-19T03:30:45.100Z,13.38
2018-07-19T03:31:45.025Z,13.35
2018-07-19T03:32:45.471Z,13.40
2018-07-19T03:33:44.969Z,13.38
2018-07-19T03:34:45.039Z,13.38
2018-07-19T03:35:44.931Z,13.38
2018-07-19T03:36:44.905Z,13.46
2018-07-19T03:37:44.901Z,13.32
2018-07-19T03:39:45.210Z,13.27
2018-07-19T03:40:45.368Z,13.30
2018-07-19T03:41:45.035Z,13.27
2018-07-19T03:42:44.813Z,13.23
2018-07-19T03:43:44.691Z,13.20
2018-07-19T03:44:44.872Z,13.27
2018-07-19T03:45:45.027Z,13.16
2018-07-19T03:46:44.719Z,13.16
2018-07-19T03:47:44.786Z,13.16
2018-07-19T03:48:44.779Z,13.13
2018-07-19T03:49:44.649Z,13.17
2018-07-19T03:50:44.737Z,13.04
2018-07-19T03:52:45.250Z,12.99
2018-07-19T03:53:44.675Z,13.04
2018-07-19T03:54:44.648Z,12.99
2018-07-19T03:55:44.606Z,13.08
2018-07-19T03:56:44.601Z,12.98
2018-07-19T03:58:44.951Z,13.01
2018-07-19T03:59:44.546Z,13.05
2018-07-19T04:00:44.500Z,12.96
2018-07-19T04:01:44.584Z,13.08
2018-07-19T04:02:45.695Z,13.02
2018-07-19T04:03:44.733Z,13.04
2018-07-19T04:04:44.773Z,13.11
2018-07-19T04:05:44.471Z,13.16
2018-07-19T04:06:44.568Z,13.17
2018-07-19T04:07:44.415Z,13.27
2018-07-19T04:08:44.385Z,13.21
2018-07-19T04:09:44.398Z,13.24
2018-07-19T04:10:44.404Z,13.29
2018-07-19T04:11:44.686Z,13.26
2018-07-19T04:12:44.337Z,13.32
2018-07-19T04:13:44.417Z,13.35
2018-07-19T04:14:44.348Z,13.36
2018-07-19T04:15:44.282Z,13.45
2018-07-19T04:16:44.308Z,13.36
2018-07-19T04:17:44.204Z,13.38
2018-07-19T04:18:44.558Z,13.46
2018-07-19T04:19:44.226Z,13.51
2018-07-19T04:20:44.283Z,13.47
2018-07-19T04:21:44.177Z,13.45
2018-07-19T04:22:44.228Z,13.49
2018-07-19T04:23:44.157Z,13.57
2018-07-19T04:24:44.184Z,13.54
2018-07-19T04:25:44.685Z,13.58
2018-07-19T04:26:44.178Z,13.55
2018-07-19T04:27:44.098Z,13.51
2018-07-19T04:28:44.135Z,13.61
2018-07-19T04:29:44.126Z,13.67
2018-07-19T04:30:44.162Z,13.76
2018-07-19T04:31:44.108Z,13.85
2018-07-19T04:32:44.442Z,13.86
2018-07-19T04:33:44.006Z,13.98
2018-07-19T04:34:44.034Z,13.94
2018-07-19T04:35:43.971Z,14.03
2018-07-19T04:36:44.022Z,14.00
2018-07-19T04:37:43.887Z,14.09
2018-07-19T04:38:44.094Z,14.11
2018-07-19T04:39:44.332Z,14.05
2018-07-19T04:40:43.911Z,14.15
2018-07-19T04:41:43.875Z,14.18
2018-07-19T04:42:43.901Z,14.26
2018-07-19T04:43:43.826Z,14.23
2018-07-19T04:44:43.827Z,14.27
2018-07-19T04:45:43.798Z,14.36
2018-07-19T04:46:44.192Z,14.38
2018-07-19T04:47:43.811Z,14.33
2018-07-19T04:48:43.836Z,14.40
2018-07-19T04:49:43.710Z,14.46
2018-07-19T04:50:43.672Z,14.46
2018-07-19T04:51:43.696Z,14.44
2018-07-19T04:52:43.634Z,14.52
2018-07-19T04:53:43.882Z,14.58
2018-07-19T04:54:43.697Z,14.55
2018-07-19T04:55:43.593Z,14.63
2018-07-19T04:56:43.560Z,14.58
2018-07-19T04:57:43.543Z,14.53
2018-07-19T04:58:43.893Z,14.55
2018-07-19T04:59:43.824Z,14.64
2018-07-19T05:00:43.495Z,14.61
2018-07-19T05:01:43.501Z,14.66
2018-07-19T05:02:43.471Z,14.70
2018-07-19T05:03:43.445Z,14.74
2018-07-19T05:04:43.456Z,14.77
2018-07-19T05:05:43.839Z,14.77
2018-07-19T05:06:43.405Z,14.82
2018-07-19T05:07:43.780Z,14.78
2018-07-19T05:08:44.166Z,14.85
2018-07-19T05:09:43.426Z,14.83
2018-07-19T05:10:43.844Z,14.93
2018-07-19T05:11:43.860Z,14.93
2018-07-19T05:12:43.456Z,14.92
2018-07-19T05:13:43.319Z,14.92
2018-07-19T05:14:43.315Z,14.96
2018-07-19T05:15:43.338Z,14.97
2018-07-19T05:16:43.380Z,14.96
2018-07-19T05:17:43.702Z,15.07
2018-07-19T05:18:43.241Z,15.08
2018-07-19T05:19:43.258Z,15.08
2018-07-19T05:20:43.184Z,15.17
2018-07-19T05:21:43.227Z,15.11
2018-07-19T05:22:43.348Z,15.14
2018-07-19T05:23:43.499Z,15.17
2018-07-19T05:24:43.151Z,15.25
2018-07-19T05:25:43.170Z,15.26
2018-07-19T05:26:43.105Z,15.32
2018-07-19T05:27:43.395Z,15.35
2018-07-19T05:28:43.182Z,15.38
2018-07-19T05:29:43.507Z,15.45
2018-07-19T05:30:43.291Z,15.48
2018-07-19T05:31:43.050Z,15.59
2018-07-19T05:32:43.042Z,15.51
2018-07-19T05:33:43.006Z,15.68
2018-07-19T05:34:43.049Z,15.66
2018-07-19T05:35:43.328Z,15.68
2018-07-19T05:36:42.999Z,15.78
2018-07-19T05:37:42.935Z,15.87
2018-07-19T05:38:42.912Z,15.81
2018-07-19T05:39:42.997Z,15.80
2018-07-19T05:40:42.900Z,15.88
2018-07-19T05:41:42.936Z,15.88
2018-07-19T05:42:43.229Z,15.90
2018-07-19T05:43:42.854Z,15.96
2018-07-19T05:44:42.825Z,15.95
2018-07-19T05:45:42.823Z,16.02
2018-07-19T05:46:42.799Z,16.06
2018-07-19T05:47:42.793Z,15.98
2018-07-19T05:48:42.840Z,16.02
2018-07-19T05:49:43.154Z,16.10
2018-07-19T05:50:42.763Z,16.08
2018-07-19T05:51:42.747Z,16.08
2018-07-19T05:52:42.686Z,16.17
2018-07-19T05:53:42.726Z,16.17
2018-07-19T05:54:42.723Z,16.24
2018-07-19T05:55:43.016Z,16.29
2018-07-19T05:56:42.685Z,16.40
2018-07-19T05:57:42.575Z,16.43
2018-07-19T05:58:42.615Z,16.54
2018-07-19T05:59:42.601Z,16.46
2018-07-19T06:00:42.609Z,16.52
2018-07-19T06:01:42.612Z,16.58
2018-07-19T06:02:42.852Z,16.69
2018-07-19T06:03:42.500Z,16.57
2018-07-19T06:04:42.531Z,16.57
2018-07-19T06:05:42.460Z,16.65
2018-07-19T06:06:42.429Z,16.67
